createdAt,value
2022-10-20T00:01:41.732Z,10.14
2022-10-20T00:04:13.410Z,10.27
2022-10-20T00:06:45.091Z,10.43
2022-10-20T00:09:16.777Z,10.50
2022-10-20T00:11:48.623Z,10.50
2022-10-20T00:14:20.326Z,10.53
2022-10-20T00:16:52.038Z,10.45
2022-10-20T00:19:23.733Z,10.32
2022-10-20T00:21:55.601Z,10.28
2022-10-20T00:24:27.630Z,10.26
2022-10-20T00:26:59.609Z,10.26
2022-10-20T00:29:32.448Z,10.21
2022-10-20T00:32:04.148Z,10.20
2022-10-20T00:34:35.960Z,10.24
2022-10-20T00:37:07.616Z,10.54
2022-10-20T00:39:39.568Z,10.68
2022-10-20T00:42:15.948Z,10.67
2022-10-20T00:44:53.702Z,10.71
2022-10-20T00:47:39.055Z,10.70
2022-10-20T00:50:14.800Z,10.63
2022-10-20T00:52:47.175Z,10.67
2022-10-20T00:55:21.740Z,10.78
2022-10-20T00:57:55.685Z,10.55
2022-10-20T01:00:27.993Z,9.36
2022-10-20T01:03:02.971Z,8.11
2022-10-20T01:05:34.685Z,7.14
2022-10-20T01:08:06.607Z,6.75
2022-10-20T01:10:45.988Z,7.54
2022-10-20T01:13:30.088Z,8.25
2022-10-20T01:16:08.735Z,8.89
2022-10-20T01:18:51.003Z,9.36
2022-10-20T01:21:56.914Z,9.57
2022-10-20T01:27:39.528Z,9.86
2022-10-20T01:30:16.576Z,8.70
2022-10-20T01:33:02.810Z,7.51
2022-10-20T01:35:47.163Z,6.96
2022-10-20T01:38:28.748Z,7.93
2022-10-20T01:41:07.483Z,8.72
2022-10-20T01:43:43.599Z,9.12
2022-10-20T01:46:18.845Z,9.40
2022-10-20T01:48:52.321Z,9.64
2022-10-20T01:51:24.549Z,9.80
2022-10-20T01:53:56.322Z,9.84
2022-10-20T01:56:38.327Z,9.74
2022-10-20T01:59:33.296Z,9.67
2022-10-20T02:02:21.921Z,9.66
2022-10-20T02:05:12.322Z,9.76
2022-10-20T02:07:45.129Z,9.78
2022-10-20T02:10:21.349Z,9.86
2022-10-20T02:12:59.929Z,9.90
2022-10-20T02:15:35.128Z,9.94
2022-10-20T02:18:10.641Z,10.06
2022-10-20T02:20:46.707Z,10.18
2022-10-20T02:23:19.101Z,10.27
2022-10-20T02:25:53.299Z,9.95
2022-10-20T02:28:26.838Z,8.68
2022-10-20T02:30:59.723Z,7.39
2022-10-20T02:33:32.528Z,6.71
2022-10-20T02:36:13.576Z,7.35
2022-10-20T02:38:45.727Z,7.95
2022-10-20T02:41:17.551Z,8.23
2022-10-20T02:43:49.226Z,8.24
2022-10-20T02:46:20.969Z,8.21
2022-10-20T02:48:52.795Z,8.21
2022-10-20T02:51:24.772Z,8.32
2022-10-20T02:53:56.474Z,8.34
2022-10-20T02:56:30.309Z,8.39
2022-10-20T02:59:03.359Z,8.39
2022-10-20T03:01:35.202Z,8.41
2022-10-20T03:04:07.616Z,8.63
2022-10-20T03:06:40.685Z,8.85
2022-10-20T03:09:12.494Z,8.93
2022-10-20T03:11:44.429Z,9.02
2022-10-20T03:14:18.544Z,9.10
2022-10-20T03:16:50.813Z,9.03
2022-10-20T03:19:23.569Z,8.96
2022-10-20T03:21:55.423Z,8.93
2022-10-20T03:24:27.141Z,8.84
2022-10-20T03:26:58.972Z,8.79
2022-10-20T03:29:33.564Z,8.74
2022-10-20T03:32:05.658Z,8.78
2022-10-20T03:34:37.340Z,8.82
2022-10-20T03:37:09.073Z,8.72
2022-10-20T03:39:40.753Z,8.75
2022-10-20T03:42:12.696Z,8.85
2022-10-20T03:44:46.412Z,8.79
2022-10-20T03:47:19.074Z,8.83
2022-10-20T03:49:51.050Z,8.83
2022-10-20T03:52:22.859Z,8.71
2022-10-20T03:54:54.859Z,8.63
2022-10-20T03:57:27.187Z,8.74
2022-10-20T04:00:00.035Z,8.79
2022-10-20T04:02:36.362Z,9.07
2022-10-20T04:05:09.769Z,9.20
2022-10-20T04:07:42.351Z,9.30
2022-10-20T04:10:15.234Z,9.43
2022-10-20T04:12:47.023Z,9.46
2022-10-20T04:15:19.237Z,9.58
2022-10-20T04:17:50.976Z,9.66
2022-10-20T04:20:22.747Z,9.73
2022-10-20T04:22:54.777Z,9.90
2022-10-20T04:25:26.451Z,10.06
2022-10-20T04:27:59.659Z,10.25
2022-10-20T04:30:31.426Z,10.35
2022-10-20T04:33:03.101Z,10.43
2022-10-20T04:35:34.823Z,10.56
2022-10-20T04:38:06.566Z,10.70
2022-10-20T04:40:38.253Z,10.79
2022-10-20T04:43:10.385Z,10.53
2022-10-20T04:45:42.068Z,9.36
2022-10-20T04:48:13.715Z,8.19
2022-10-20T04:50:45.589Z,7.60
2022-10-20T04:53:17.233Z,8.32
2022-10-20T04:55:56.880Z,9.14
2022-10-20T04:58:28.895Z,9.67
2022-10-20T05:01:05.393Z,9.81
2022-10-20T05:03:38.071Z,9.88
2022-10-20T05:06:15.061Z,10.02
2022-10-20T05:08:48.609Z,10.11
2022-10-20T05:11:21.731Z,10.17
2022-10-20T05:13:54.391Z,10.11
2022-10-20T05:16:26.194Z,10.15
2022-10-20T05:18:58.247Z,10.37
2022-10-20T05:21:32.111Z,10.52
2022-10-20T05:24:06.177Z,10.73
2022-10-20T05:26:38.007Z,10.90
2022-10-20T05:29:11.596Z,11.05
2022-10-20T05:31:45.212Z,11.19
2022-10-20T05:34:16.903Z,11.04
2022-10-20T05:36:48.528Z,9.93
2022-10-20T05:39:20.124Z,8.78
2022-10-20T05:41:51.770Z,7.90
2022-10-20T05:44:23.796Z,7.57
2022-10-20T05:46:55.601Z,8.43
2022-10-20T05:49:27.292Z,9.38
2022-10-20T05:51:58.930Z,10.02
2022-10-20T05:54:30.590Z,10.40
2022-10-20T05:57:02.174Z,10.63
2022-10-20T05:59:33.829Z,10.82
2022-10-20T06:02:05.550Z,10.94
2022-10-20T06:04:37.602Z,10.96
2022-10-20T06:07:10.197Z,11.02
2022-10-20T06:09:42.509Z,11.08
2022-10-20T06:12:14.695Z,11.14
2022-10-20T06:14:46.335Z,11.28
2022-10-20T06:17:17.991Z,11.17
2022-10-20T06:19:49.626Z,10.13
2022-10-20T06:22:21.283Z,9.01
2022-10-20T06:24:52.957Z,8.02
2022-10-20T06:27:24.734Z,7.59
2022-10-20T06:29:56.389Z,8.49
2022-10-20T06:32:28.036Z,9.36
2022-10-20T06:34:59.680Z,9.89
2022-10-20T06:37:31.669Z,10.28
2022-10-20T06:40:04.284Z,10.56
2022-10-20T06:42:36.060Z,10.79
2022-10-20T06:45:10.127Z,11.02
2022-10-20T06:47:43.121Z,11.24
2022-10-20T06:50:14.853Z,11.32
2022-10-20T06:52:46.791Z,11.42
2022-10-20T06:55:18.734Z,11.25
2022-10-20T06:57:51.315Z,10.19
2022-10-20T07:00:22.992Z,9.02
2022-10-20T07:02:54.820Z,8.36
2022-10-20T07:05:27.147Z,9.08
2022-10-20T07:07:58.812Z,9.92
2022-10-20T07:10:30.470Z,10.63
2022-10-20T07:13:02.130Z,11.15
2022-10-20T07:15:33.836Z,11.48
2022-10-20T07:18:05.864Z,11.53
2022-10-20T07:20:37.647Z,10.44
2022-10-20T07:23:11.088Z,9.22
2022-10-20T07:25:42.735Z,8.31
2022-10-20T07:28:14.421Z,7.94
2022-10-20T07:30:46.145Z,8.85
2022-10-20T07:33:17.859Z,9.85
2022-10-20T07:35:49.765Z,10.60
2022-10-20T07:38:21.487Z,11.19
2022-10-20T07:40:53.679Z,11.54
2022-10-20T07:43:25.628Z,11.58
2022-10-20T07:45:57.461Z,10.58
2022-10-20T07:48:29.134Z,9.60
2022-10-20T07:51:18.903Z,8.91
2022-10-20T07:53:50.893Z,8.28
2022-10-20T07:56:23.033Z,8.17
2022-10-20T07:58:55.354Z,9.20
2022-10-20T08:01:27.976Z,10.18
2022-10-20T08:03:59.711Z,10.91
2022-10-20T08:06:31.421Z,11.47
2022-10-20T08:09:03.201Z,11.85
2022-10-20T08:11:35.177Z,11.93
2022-10-20T08:14:07.109Z,11.05
2022-10-20T08:16:48.840Z,10.14
2022-10-20T08:22:06.092Z,9.02
2022-10-20T08:24:37.893Z,8.62
2022-10-20T08:27:09.552Z,8.61
2022-10-20T08:29:41.277Z,9.79
2022-10-20T08:32:14.375Z,11.15
2022-10-20T08:34:46.675Z,12.16
2022-10-20T08:39:55.100Z,13.02
2022-10-20T08:42:27.584Z,12.12
2022-10-20T08:45:01.815Z,11.25
2022-10-20T08:47:37.634Z,10.63
2022-10-20T08:50:12.906Z,10.12
2022-10-20T08:52:49.022Z,9.70
2022-10-20T08:55:27.495Z,9.31
2022-10-20T08:58:04.015Z,9.31
2022-10-20T09:00:39.237Z,10.55
2022-10-20T09:03:18.272Z,11.75
2022-10-20T09:05:54.036Z,12.56
2022-10-20T09:08:31.529Z,12.89
2022-10-20T09:11:04.192Z,12.07
2022-10-20T09:13:37.698Z,11.18
2022-10-20T09:16:22.097Z,10.62
2022-10-20T09:19:06.830Z,10.14
2022-10-20T09:21:39.737Z,9.76
2022-10-20T09:24:11.856Z,9.52
2022-10-20T09:26:58.248Z,9.83
2022-10-20T09:29:40.427Z,11.31
2022-10-20T09:35:22.188Z,12.90
2022-10-20T09:37:58.558Z,12.23
2022-10-20T09:40:30.705Z,11.54
2022-10-20T09:43:09.137Z,11.01
2022-10-20T09:45:54.756Z,10.59
2022-10-20T09:48:28.799Z,10.20
2022-10-20T09:51:01.951Z,9.87
2022-10-20T09:53:39.021Z,9.67
2022-10-20T09:56:11.845Z,9.45
2022-10-20T09:58:47.633Z,9.19
2022-10-20T10:01:20.034Z,8.95
2022-10-20T10:03:56.110Z,9.05
2022-10-20T10:06:40.323Z,10.29
2022-10-20T10:12:22.151Z,12.17
2022-10-20T10:14:56.499Z,11.56
2022-10-20T10:17:37.451Z,10.83
2022-10-20T10:20:38.326Z,10.38
2022-10-20T10:23:28.139Z,10.08
2022-10-20T10:26:02.214Z,10.00
2022-10-20T10:28:37.640Z,10.02
2022-10-20T10:31:23.855Z,10.07
2022-10-20T10:34:03.904Z,10.06
2022-10-20T10:36:37.947Z,10.38
2022-10-20T10:39:16.488Z,11.91
2022-10-20T10:42:05.001Z,13.34
2022-10-20T10:44:51.782Z,14.05
2022-10-20T10:47:40.931Z,13.29
2022-10-20T10:50:28.679Z,12.35
2022-10-20T10:53:15.269Z,11.64
2022-10-20T10:55:56.483Z,11.28
2022-10-20T10:58:41.323Z,11.07
2022-10-20T11:01:39.498Z,10.93
2022-10-20T11:04:31.246Z,10.81
2022-10-20T11:07:10.604Z,10.56
2022-10-20T11:09:51.457Z,10.34
2022-10-20T11:12:42.538Z,10.11
2022-10-20T11:15:25.826Z,9.99
2022-10-20T11:18:06.276Z,10.04
2022-10-20T11:20:47.194Z,10.21
2022-10-20T11:23:55.620Z,10.38
2022-10-20T11:26:32.766Z,10.54
2022-10-20T11:29:11.738Z,10.72
2022-10-20T11:31:54.827Z,10.72
2022-10-20T11:34:35.983Z,10.66
2022-10-20T11:37:15.219Z,10.66
2022-10-20T11:39:52.966Z,10.48
2022-10-20T11:42:32.492Z,10.21
2022-10-20T11:45:08.531Z,9.97
2022-10-20T11:47:44.520Z,9.86
2022-10-20T11:50:22.386Z,9.78
2022-10-20T11:53:09.942Z,9.87
2022-10-20T11:55:55.937Z,10.07
2022-10-20T11:58:42.945Z,10.27
2022-10-20T12:01:31.032Z,10.45
2022-10-20T12:04:15.033Z,10.69
2022-10-20T12:07:05.246Z,11.00
2022-10-20T12:10:27.358Z,11.26
2022-10-20T12:13:08.712Z,11.52
2022-10-20T12:15:48.600Z,11.64
2022-10-20T12:18:27.745Z,11.74
2022-10-20T12:21:03.962Z,11.72
2022-10-20T12:24:05.812Z,11.66
2022-10-20T12:26:55.786Z,11.50
2022-10-20T12:29:53.742Z,11.46
2022-10-20T12:33:10.034Z,11.41
2022-10-20T12:36:02.730Z,11.39
2022-10-20T12:38:35.347Z,11.40
2022-10-20T12:41:11.977Z,11.39
2022-10-20T12:43:55.478Z,11.31
2022-10-20T12:46:32.016Z,11.13
2022-10-20T12:49:11.747Z,10.95
2022-10-20T12:51:52.963Z,10.82
2022-10-20T12:54:30.661Z,10.72
2022-10-20T12:57:06.538Z,10.65
2022-10-20T12:59:43.100Z,10.51
2022-10-20T13:03:00.330Z,10.40
2022-10-20T13:05:49.503Z,10.36
2022-10-20T13:08:38.534Z,10.31
2022-10-20T13:11:46.150Z,10.24
2022-10-20T13:14:44.669Z,10.12
2022-10-20T13:17:23.203Z,10.11
2022-10-20T13:20:01.201Z,10.10
2022-10-20T13:22:51.125Z,10.08
2022-10-20T13:25:44.884Z,10.07
2022-10-20T13:28:22.474Z,10.10
2022-10-20T13:31:18.276Z,10.11
2022-10-20T13:34:05.798Z,10.09
2022-10-20T13:36:56.274Z,10.11
2022-10-20T13:39:37.784Z,10.15
2022-10-20T13:42:21.105Z,10.11
2022-10-20T13:45:03.185Z,10.03
2022-10-20T13:47:50.028Z,9.99
2022-10-20T13:50:25.061Z,9.97
2022-10-20T13:52:59.076Z,9.93
2022-10-20T13:55:52.663Z,9.91
2022-10-20T13:58:26.040Z,9.89
2022-10-20T14:01:04.846Z,9.86
2022-10-20T14:03:45.077Z,9.85
2022-10-20T14:06:35.071Z,9.86
2022-10-20T14:09:18.342Z,9.87
2022-10-20T14:11:54.405Z,9.85
2022-10-20T14:14:29.159Z,9.83
2022-10-20T14:17:02.959Z,9.82
2022-10-20T14:19:37.490Z,9.83
2022-10-20T14:22:21.828Z,9.78
2022-10-20T14:24:56.255Z,9.74
2022-10-20T14:27:32.929Z,9.70
2022-10-20T14:30:08.578Z,9.68
2022-10-20T14:32:44.420Z,9.65
2022-10-20T14:35:28.276Z,9.63
2022-10-20T14:38:03.938Z,9.55
2022-10-20T14:40:38.055Z,9.46
2022-10-20T14:43:17.469Z,9.38
2022-10-20T14:45:57.763Z,9.31
2022-10-20T14:48:35.513Z,9.22
2022-10-20T14:51:34.697Z,9.12
2022-10-20T14:54:28.537Z,8.98
2022-10-20T14:57:03.086Z,8.86
2022-10-20T14:59:38.481Z,8.76
2022-10-20T15:02:14.553Z,8.65
2022-10-20T15:04:47.315Z,8.51
2022-10-20T15:07:23.384Z,8.39
2022-10-20T15:10:01.617Z,8.25
2022-10-20T15:12:42.982Z,8.08
2022-10-20T15:15:25.154Z,7.93
2022-10-20T15:18:15.213Z,8.10
2022-10-20T15:20:47.885Z,9.59
2022-10-20T15:23:21.976Z,10.77
2022-10-20T15:25:55.841Z,11.57
2022-10-20T15:28:34.031Z,12.19
2022-10-20T15:31:09.018Z,12.34
2022-10-20T15:33:40.783Z,11.47
2022-10-20T15:36:16.369Z,10.55
2022-10-20T15:38:48.480Z,9.83
2022-10-20T15:41:22.512Z,9.25
2022-10-20T15:43:54.837Z,8.71
2022-10-20T15:46:26.748Z,8.22
2022-10-20T15:48:59.026Z,7.80
2022-10-20T15:51:33.099Z,7.42
2022-10-20T15:54:05.148Z,7.43
2022-10-20T15:56:36.884Z,8.64
2022-10-20T15:59:08.790Z,9.78
2022-10-20T16:01:40.686Z,10.52
2022-10-20T16:04:19.973Z,11.04
2022-10-20T16:06:57.654Z,11.18
2022-10-20T16:09:32.275Z,10.21
2022-10-20T16:12:04.240Z,9.25
2022-10-20T16:14:38.291Z,8.50
2022-10-20T16:17:09.958Z,7.89
2022-10-20T16:19:41.910Z,7.38
2022-10-20T16:22:13.599Z,6.93
2022-10-20T16:24:45.343Z,6.52
2022-10-20T16:27:17.752Z,6.42
2022-10-20T16:29:50.970Z,7.50
2022-10-20T16:32:22.939Z,8.59
2022-10-20T16:34:56.045Z,9.32
2022-10-20T16:37:28.158Z,9.80
2022-10-20T16:40:00.089Z,10.16
2022-10-20T16:42:32.547Z,10.13
2022-10-20T16:45:05.665Z,9.22
2022-10-20T16:47:37.807Z,8.21
2022-10-20T16:50:10.349Z,7.41
2022-10-20T16:52:41.987Z,6.74
2022-10-20T16:55:13.814Z,6.18
2022-10-20T16:57:45.522Z,6.01
2022-10-20T17:00:18.699Z,7.01
2022-10-20T17:02:53.034Z,8.22
2022-10-20T17:05:26.851Z,9.08
2022-10-20T17:07:58.708Z,9.47
2022-10-20T17:10:30.794Z,9.48
2022-10-20T17:13:03.039Z,8.57
2022-10-20T17:15:34.866Z,7.60
2022-10-20T17:18:06.770Z,6.85
2022-10-20T17:20:40.694Z,6.22
2022-10-20T17:23:12.594Z,5.69
2022-10-20T17:25:44.461Z,5.52
2022-10-20T17:28:16.814Z,6.50
2022-10-20T17:30:49.787Z,7.57
2022-10-20T17:33:21.700Z,8.37
2022-10-20T17:35:53.720Z,8.86
2022-10-20T17:38:26.900Z,9.12
2022-10-20T17:41:03.366Z,9.13
2022-10-20T17:43:35.499Z,8.14
2022-10-20T17:46:09.044Z,7.14
2022-10-20T17:48:41.352Z,6.37
2022-10-20T17:51:15.254Z,5.78
2022-10-20T17:53:50.468Z,5.53
2022-10-20T17:56:24.049Z,6.44
2022-10-20T17:58:56.703Z,7.31
2022-10-20T18:01:30.699Z,7.90
2022-10-20T18:04:04.372Z,8.31
2022-10-20T18:06:37.239Z,8.68
2022-10-20T18:09:11.854Z,8.83
2022-10-20T18:11:46.180Z,7.88
2022-10-20T18:14:18.173Z,6.85
2022-10-20T18:16:50.819Z,6.08
2022-10-20T18:19:22.485Z,5.44
2022-10-20T18:21:54.262Z,5.06
2022-10-20T18:24:26.323Z,5.79
2022-10-20T18:26:58.267Z,6.67
2022-10-20T18:29:30.007Z,7.33
2022-10-20T18:32:01.695Z,7.84
2022-10-20T18:34:33.452Z,8.19
2022-10-20T18:37:05.444Z,8.31
2022-10-20T18:39:37.582Z,7.43
2022-10-20T18:42:09.884Z,6.37
2022-10-20T18:44:41.595Z,5.54
2022-10-20T18:47:13.320Z,4.90
2022-10-20T18:49:45.268Z,4.65
2022-10-20T18:52:17.089Z,5.70
2022-10-20T18:54:48.780Z,6.67
2022-10-20T18:57:20.475Z,7.38
2022-10-20T18:59:53.242Z,7.92
2022-10-20T19:02:26.901Z,8.28
2022-10-20T19:04:59.014Z,8.28
2022-10-20T19:07:32.892Z,7.29
2022-10-20T19:10:04.767Z,6.25
2022-10-20T19:12:37.307Z,5.42
2022-10-20T19:15:11.643Z,4.78
2022-10-20T19:17:43.337Z,4.26
2022-10-20T19:20:15.217Z,4.11
2022-10-20T19:22:49.494Z,5.17
2022-10-20T19:25:21.216Z,6.30
2022-10-20T19:27:53.114Z,7.02
2022-10-20T19:30:24.886Z,7.54
2022-10-20T19:32:56.902Z,7.94
2022-10-20T19:35:28.746Z,7.99
2022-10-20T19:38:00.458Z,7.00
2022-10-20T19:40:32.147Z,5.94
2022-10-20T19:43:03.862Z,5.10
2022-10-20T19:45:35.660Z,4.46
2022-10-20T19:48:07.795Z,3.94
2022-10-20T19:50:39.453Z,3.82
2022-10-20T19:53:11.500Z,5.09
2022-10-20T19:55:43.193Z,6.25
2022-10-20T19:58:15.023Z,7.01
2022-10-20T20:00:48.822Z,7.51
2022-10-20T20:03:21.144Z,7.86
2022-10-20T20:06:00.562Z,7.86
2022-10-20T20:08:32.667Z,6.82
2022-10-20T20:11:05.814Z,5.72
2022-10-20T20:13:37.842Z,4.87
2022-10-20T20:16:10.856Z,4.25
2022-10-20T20:18:42.553Z,4.03
2022-10-20T20:21:14.242Z,5.16
2022-10-20T20:24:01.456Z,6.29
2022-10-20T20:26:35.433Z,7.04
2022-10-20T20:29:07.513Z,7.46
2022-10-20T20:31:39.505Z,7.58
2022-10-20T20:34:11.204Z,6.65
2022-10-20T20:36:42.939Z,5.57
2022-10-20T20:39:14.620Z,4.70
2022-10-20T20:41:47.100Z,3.99
2022-10-20T20:44:19.023Z,3.67
2022-10-20T20:46:50.711Z,4.59
2022-10-20T20:49:23.015Z,5.55
2022-10-20T20:51:54.732Z,6.15
2022-10-20T20:54:28.326Z,6.42
2022-10-20T20:57:02.538Z,6.69
2022-10-20T20:59:34.209Z,7.00
2022-10-20T21:02:05.864Z,7.24
2022-10-20T21:04:37.812Z,7.23
2022-10-20T21:07:09.633Z,6.30
2022-10-20T21:09:41.383Z,5.27
2022-10-20T21:12:13.170Z,4.44
2022-10-20T21:14:44.930Z,3.78
2022-10-20T21:17:16.768Z,3.56
2022-10-20T21:19:48.534Z,4.57
2022-10-20T21:22:20.182Z,5.55
2022-10-20T21:24:51.848Z,6.02
2022-10-20T21:27:23.567Z,6.19
2022-10-20T21:29:55.350Z,6.37
2022-10-20T21:32:27.159Z,6.60
2022-10-20T21:34:59.340Z,6.86
2022-10-20T21:37:31.067Z,7.11
2022-10-20T21:40:02.717Z,7.15
2022-10-20T21:42:34.437Z,6.20
2022-10-20T21:45:06.975Z,5.18
2022-10-20T21:47:38.619Z,4.39
2022-10-20T21:50:11.140Z,3.75
2022-10-20T21:52:42.832Z,3.21
2022-10-20T21:55:14.472Z,3.09
2022-10-20T21:57:46.169Z,4.23
2022-10-20T22:00:21.835Z,5.31
2022-10-20T22:02:55.623Z,5.84
2022-10-20T22:05:27.428Z,6.09
2022-10-20T22:07:59.062Z,6.30
2022-10-20T22:10:30.686Z,6.53
2022-10-20T22:13:02.433Z,6.85
2022-10-20T22:15:39.475Z,6.89
2022-10-20T22:18:11.204Z,5.89
2022-10-20T22:20:43.027Z,4.84
2022-10-20T22:23:15.173Z,4.05
2022-10-20T22:25:46.880Z,3.40
2022-10-20T22:28:18.691Z,3.16
2022-10-20T22:30:51.413Z,4.13
2022-10-20T22:33:23.253Z,5.28
2022-10-20T22:35:54.906Z,6.01
2022-10-20T22:38:26.650Z,6.29
2022-10-20T22:41:02.530Z,6.49
2022-10-20T22:43:34.249Z,6.75
2022-10-20T22:46:06.532Z,6.76
2022-10-20T22:48:38.279Z,5.79
2022-10-20T22:51:12.276Z,4.71
2022-10-20T22:53:44.148Z,3.82
2022-10-20T22:56:18.068Z,3.18
2022-10-20T22:58:52.899Z,2.93
2022-10-20T23:01:25.623Z,3.90
2022-10-20T23:03:57.315Z,4.94
2022-10-20T23:06:29.049Z,5.72
2022-10-20T23:09:01.030Z,6.31
2022-10-20T23:11:32.872Z,6.76
2022-10-20T23:14:04.661Z,6.82
2022-10-20T23:16:36.339Z,5.80
2022-10-20T23:19:07.980Z,4.65
2022-10-20T23:21:39.851Z,3.73
2022-10-20T23:24:11.581Z,3.00
2022-10-20T23:26:43.596Z,2.63
2022-10-20T23:29:15.317Z,3.49
2022-10-20T23:31:47.013Z,4.49
2022-10-20T23:34:18.636Z,5.22
2022-10-20T23:36:50.474Z,5.72
2022-10-20T23:39:22.156Z,6.08
2022-10-20T23:41:53.786Z,6.34
2022-10-20T23:44:25.458Z,6.31
2022-10-20T23:46:57.211Z,5.31
2022-10-20T23:49:28.932Z,4.20
2022-10-20T23:52:00.709Z,3.33
2022-10-20T23:54:32.416Z,2.62
2022-10-20T23:57:04.211Z,2.35
2022-10-20T23:59:35.860Z,3.47
